createdAt,value
2018-05-05T00:01:59.456Z,38.00
2018-05-05T00:04:27.035Z,37.70
2018-05-05T00:06:55.354Z,37.50
2018-05-05T00:09:23.696Z,36.90
2018-05-05T00:11:51.269Z,37.00
2018-05-05T00:14:18.864Z,36.70
2018-05-05T00:16:46.430Z,36.70
2018-05-05T00:19:14.010Z,37.50
2018-05-05T00:21:41.616Z,37.70
2018-05-05T00:24:09.186Z,38.20
2018-05-05T00:26:36.755Z,38.50
2018-05-05T00:29:05.115Z,39.10
2018-05-05T00:31:32.690Z,39.10
2018-05-05T00:34:00.276Z,39.60
2018-05-05T00:36:28.954Z,40.00
2018-05-05T00:38:56.517Z,40.00
2018-05-05T00:41:24.083Z,40.20
2018-05-05T00:43:51.679Z,40.70
2018-05-05T00:46:19.249Z,40.50
2018-05-05T00:48:46.830Z,40.60
2018-05-05T00:51:14.421Z,40.80
2018-05-05T00:53:42.762Z,40.60
2018-05-05T00:56:10.330Z,40.60
2018-05-05T00:58:37.938Z,40.90
2018-05-05T01:01:05.505Z,41.80
2018-05-05T01:03:33.074Z,42.50
2018-05-05T01:06:00.696Z,42.70
2018-05-05T01:08:28.292Z,42.30
2018-05-05T01:10:55.853Z,43.70
2018-05-05T01:13:23.451Z,44.40
2018-05-05T01:15:51.027Z,44.60
2018-05-05T01:18:18.594Z,44.60
2018-05-05T01:20:46.193Z,45.10
2018-05-05T01:23:13.762Z,45.30
2018-05-05T01:25:42.266Z,46.60
2018-05-05T01:28:09.863Z,46.00
2018-05-05T01:30:37.433Z,46.90
2018-05-05T01:33:05.762Z,46.80
2018-05-05T01:35:33.362Z,46.80
2018-05-05T01:38:00.934Z,46.40
2018-05-05T01:40:28.511Z,46.50
2018-05-05T01:42:56.114Z,47.30
2018-05-05T01:45:24.451Z,47.20
2018-05-05T01:47:52.031Z,47.20
2018-05-05T01:50:19.691Z,48.40
2018-05-05T01:52:47.262Z,49.20
2018-05-05T01:55:14.828Z,50.60
2018-05-05T01:57:42.423Z,50.70
2018-05-05T02:00:09.990Z,51.10
2018-05-05T02:02:37.554Z,51.10
2018-05-05T02:05:05.176Z,51.60
2018-05-05T02:07:33.501Z,52.80
2018-05-05T02:10:01.902Z,53.50
2018-05-05T02:12:29.502Z,53.50
2018-05-05T02:14:57.074Z,54.00
2018-05-05T02:17:24.646Z,54.40
2018-05-05T02:19:52.239Z,54.90
2018-05-05T02:22:19.810Z,56.60
2018-05-05T02:24:47.398Z,57.50
2018-05-05T02:27:15.758Z,58.10
2018-05-05T02:29:43.337Z,58.10
2018-05-05T02:32:10.903Z,58.40
2018-05-05T02:34:38.514Z,58.40
2018-05-05T02:37:06.847Z,60.80
2018-05-05T02:39:34.415Z,60.80
2018-05-05T02:42:02.022Z,62.10
2018-05-05T02:44:29.602Z,62.90
2018-05-05T02:46:57.168Z,63.10
2018-05-05T02:49:24.762Z,63.40
2018-05-05T02:51:53.092Z,65.60
2018-05-05T02:54:20.662Z,65.60
2018-05-05T02:56:48.257Z,65.80
2018-05-05T02:59:15.830Z,67.30
2018-05-05T03:01:43.398Z,69.50
2018-05-05T03:04:10.999Z,69.90
2018-05-05T03:06:38.563Z,70.10
2018-05-05T03:09:06.126Z,71.20
2018-05-05T03:11:33.759Z,71.40
2018-05-05T03:14:01.338Z,72.70
2018-05-05T03:16:28.902Z,70.60
2018-05-05T03:18:56.502Z,72.50
2018-05-05T03:21:24.079Z,74.10
2018-05-05T03:23:51.643Z,74.40
2018-05-05T03:26:19.234Z,73.40
2018-05-05T03:28:46.801Z,72.50
2018-05-05T03:31:14.361Z,75.20
2018-05-05T03:33:41.958Z,74.30
2018-05-05T03:36:09.538Z,75.90
2018-05-05T03:38:37.102Z,75.30
2018-05-05T03:41:04.695Z,76.40
2018-05-05T03:43:32.270Z,76.30
2018-05-05T03:45:59.837Z,75.80
2018-05-05T03:48:28.925Z,76.80
2018-05-05T03:50:56.498Z,77.70
2018-05-05T03:53:24.057Z,77.50
2018-05-05T03:55:51.650Z,78.20
2018-05-05T03:58:19.210Z,80.30
2018-05-05T04:00:58.586Z,80.60
2018-05-05T04:03:37.982Z,79.00
2018-05-05T04:06:05.578Z,81.00
2018-05-05T04:08:33.141Z,82.20
2018-05-05T04:11:00.739Z,81.50
2018-05-05T04:13:28.330Z,81.30
2018-05-05T04:15:55.912Z,81.40
2018-05-05T04:18:24.258Z,77.30
2018-05-05T04:20:51.856Z,77.30
2018-05-05T04:23:19.428Z,77.30
2018-05-05T04:25:47.001Z,74.60
2018-05-05T04:28:14.605Z,71.30
2018-05-05T04:30:42.933Z,71.10
2018-05-05T04:33:10.540Z,71.00
2018-05-05T04:35:38.138Z,70.20
2018-05-05T04:38:06.474Z,73.20
2018-05-05T04:40:34.067Z,73.20
2018-05-05T04:43:01.658Z,73.30
2018-05-05T04:45:29.235Z,70.20
2018-05-05T04:47:57.577Z,68.70
2018-05-05T04:50:25.161Z,68.60
2018-05-05T04:52:52.727Z,68.40
2018-05-05T04:55:20.304Z,66.40
2018-05-05T04:57:47.906Z,62.80
2018-05-05T05:00:15.478Z,61.70
2018-05-05T05:02:43.059Z,58.50
2018-05-05T05:05:10.655Z,54.80
2018-05-05T05:07:38.230Z,53.30
2018-05-05T05:10:05.797Z,51.00
2018-05-05T05:12:34.165Z,48.90
2018-05-05T05:15:01.754Z,48.80
2018-05-05T05:17:30.162Z,45.60
2018-05-05T05:19:57.762Z,45.60
2018-05-05T05:22:25.334Z,46.20
2018-05-05T05:24:52.902Z,45.80
2018-05-05T05:27:20.502Z,43.40
2018-05-05T05:29:48.078Z,41.80
2018-05-05T05:32:15.662Z,40.00
2018-05-05T05:34:43.268Z,39.10
2018-05-05T05:37:10.847Z,39.60
2018-05-05T05:39:38.409Z,38.70
2018-05-05T05:42:06.770Z,38.20
2018-05-05T05:44:34.346Z,38.10
2018-05-05T05:47:01.935Z,37.90
2018-05-05T05:49:30.316Z,36.60
2018-05-05T05:51:57.889Z,36.60
2018-05-05T05:54:25.449Z,35.60
2018-05-05T05:56:53.078Z,35.40
2018-05-05T05:59:20.649Z,35.10
2018-05-05T06:01:48.524Z,34.40
2018-05-05T06:04:16.134Z,34.50
2018-05-05T06:06:43.710Z,35.20
2018-05-05T06:09:11.290Z,34.90
2018-05-05T06:11:38.898Z,35.40
2018-05-05T06:14:07.237Z,33.70
2018-05-05T06:16:34.808Z,33.60
2018-05-05T06:19:02.423Z,34.80
2018-05-05T06:21:30.790Z,32.70
2018-05-05T06:23:58.364Z,32.40
2018-05-05T06:26:25.966Z,31.20
2018-05-05T06:28:54.474Z,31.30
2018-05-05T06:31:22.822Z,29.10
2018-05-05T06:33:50.443Z,28.90
2018-05-05T06:36:18.017Z,27.30
2018-05-05T06:38:45.584Z,27.50
2018-05-05T06:41:13.168Z,27.10
2018-05-05T06:43:41.537Z,23.50
2018-05-05T06:46:09.350Z,23.40
2018-05-05T06:48:36.939Z,21.50
2018-05-05T06:51:04.537Z,19.20
2018-05-05T06:53:32.109Z,20.10
2018-05-05T06:55:59.785Z,18.00
2018-05-05T06:58:27.387Z,17.00
2018-05-05T07:00:55.027Z,15.10
2018-05-05T07:03:22.551Z,14.20
2018-05-05T07:05:50.867Z,13.70
2018-05-05T07:08:18.427Z,13.30
2018-05-05T07:10:46.778Z,11.60
2018-05-05T07:13:14.363Z,11.60
2018-05-05T07:15:42.767Z,10.50
2018-05-05T07:18:10.315Z,10.50
2018-05-05T07:20:37.862Z,10.90
2018-05-05T07:23:05.404Z,11.60
2018-05-05T07:25:33.747Z,11.50
2018-05-05T07:28:01.299Z,11.40
2018-05-05T07:30:28.851Z,11.10
2018-05-05T07:32:56.422Z,10.90
2018-05-05T07:35:24.007Z,9.60
2018-05-05T07:37:51.554Z,11.90
2018-05-05T07:40:19.122Z,10.60
2018-05-05T07:42:46.657Z,10.60
2018-05-05T07:45:14.219Z,8.70
2018-05-05T07:47:41.790Z,8.60
2018-05-05T07:50:09.370Z,9.40
2018-05-05T07:52:36.894Z,9.10
2018-05-05T07:55:04.463Z,9.40
2018-05-05T07:57:32.013Z,8.30
2018-05-05T08:00:00.347Z,9.40
2018-05-05T08:02:27.938Z,8.80
2018-05-05T08:04:55.478Z,7.80
2018-05-05T08:07:23.021Z,7.40
2018-05-05T08:09:50.597Z,7.80
2018-05-05T08:12:18.917Z,7.20
2018-05-05T08:14:46.470Z,7.20
2018-05-05T08:17:14.810Z,8.30
2018-05-05T08:19:42.351Z,8.30
2018-05-05T08:22:09.890Z,6.20
2018-05-05T08:24:37.468Z,6.10
2018-05-05T08:27:05.774Z,8.80
2018-05-05T08:29:34.087Z,5.40
2018-05-05T08:32:01.666Z,5.30
2018-05-05T08:34:29.226Z,6.50
2018-05-05T08:36:56.774Z,6.40
2018-05-05T08:39:25.115Z,7.90
2018-05-05T08:41:52.678Z,7.90
2018-05-05T08:44:20.224Z,6.90
2018-05-05T08:46:47.785Z,7.70
2018-05-05T08:49:16.095Z,7.30
2018-05-05T08:51:43.638Z,7.30
2018-05-05T08:54:11.982Z,9.00
2018-05-05T08:56:39.522Z,8.90
2018-05-05T08:59:07.065Z,8.90
2018-05-05T09:01:34.638Z,9.80
2018-05-05T09:04:02.183Z,8.20
2018-05-05T09:06:29.733Z,8.70
2018-05-05T09:08:57.316Z,9.70
2018-05-05T09:11:24.857Z,8.80
2018-05-05T09:13:52.395Z,7.00
2018-05-05T09:16:20.800Z,6.30
2018-05-05T09:18:48.313Z,6.30
2018-05-05T09:21:15.861Z,5.40
2018-05-05T09:23:43.425Z,6.60
2018-05-05T09:26:11.735Z,6.80
2018-05-05T09:28:39.283Z,6.90
2018-05-05T09:31:07.609Z,6.50
2018-05-05T09:33:35.150Z,6.40
2018-05-05T09:36:02.697Z,5.50
2018-05-05T09:38:30.273Z,4.90
2018-05-05T09:40:58.581Z,2.80
2018-05-05T09:43:26.123Z,3.10
2018-05-05T09:45:53.700Z,4.70
2018-05-05T09:48:21.246Z,4.30
2018-05-05T09:50:48.791Z,5.50
2018-05-05T09:53:16.363Z,4.80
2018-05-05T09:55:43.905Z,5.30
2018-05-05T09:58:12.210Z,5.20
2018-05-05T10:00:39.772Z,5.20
2018-05-05T10:03:08.080Z,3.70
2018-05-05T10:05:35.622Z,3.70
2018-05-05T10:08:03.958Z,5.80
2018-05-05T10:10:31.493Z,5.80
2018-05-05T10:12:59.811Z,5.90
2018-05-05T10:15:27.395Z,6.40
2018-05-05T10:17:54.944Z,8.00
2018-05-05T10:20:22.498Z,7.20
2018-05-05T10:22:50.842Z,5.30
2018-05-05T10:25:18.444Z,5.20
2018-05-05T10:27:45.986Z,6.30
2018-05-05T10:30:13.549Z,4.60
2018-05-05T10:32:41.143Z,4.50
2018-05-05T10:35:08.686Z,4.80
2018-05-05T10:37:36.266Z,3.30
2018-05-05T10:40:03.834Z,3.90
2018-05-05T10:42:31.383Z,4.10
2018-05-05T10:44:58.993Z,5.10
2018-05-05T10:47:26.533Z,5.10
2018-05-05T10:49:54.080Z,4.90
2018-05-05T10:52:22.420Z,5.40
2018-05-05T10:54:50.040Z,5.30
2018-05-05T10:57:17.604Z,3.50
2018-05-05T10:59:45.183Z,3.10
2018-05-05T11:02:12.718Z,3.20
2018-05-05T11:04:40.271Z,2.70
2018-05-05T11:07:07.853Z,3.80
2018-05-05T11:09:35.399Z,3.10
2018-05-05T11:12:02.946Z,3.10
2018-05-05T11:14:31.282Z,3.10
2018-05-05T11:16:58.818Z,3.20
2018-05-05T11:19:27.130Z,5.60
2018-05-05T11:21:54.709Z,5.60
2018-05-05T11:24:22.260Z,6.00
2018-05-05T11:26:50.566Z,5.80
2018-05-05T11:29:18.143Z,5.80
2018-05-05T11:31:45.690Z,8.10
2018-05-05T11:34:14.109Z,8.40
2018-05-05T11:36:41.677Z,8.40
2018-05-05T11:39:09.235Z,9.60
2018-05-05T11:41:36.781Z,8.20
2018-05-05T11:44:04.356Z,7.70
2018-05-05T11:46:31.918Z,8.60
2018-05-05T11:48:59.466Z,8.60
2018-05-05T11:51:27.063Z,9.20
2018-05-05T11:53:54.633Z,8.80
2018-05-05T11:56:22.253Z,9.10
2018-05-05T11:58:49.971Z,9.40
2018-05-05T12:01:17.521Z,8.50
2018-05-05T12:03:45.078Z,8.60
2018-05-05T12:06:12.642Z,9.40
2018-05-05T12:08:40.199Z,11.00
2018-05-05T12:11:08.519Z,10.50
2018-05-05T12:13:36.100Z,10.50
2018-05-05T12:16:03.707Z,8.80
2018-05-05T12:18:31.255Z,8.90
2018-05-05T12:20:58.869Z,9.10
2018-05-05T12:23:27.430Z,9.80
2018-05-05T12:25:54.975Z,9.80
2018-05-05T12:28:22.551Z,9.20
2018-05-05T12:30:50.110Z,7.60
2018-05-05T12:33:17.661Z,8.30
2018-05-05T12:35:46.001Z,8.70
2018-05-05T12:38:13.551Z,8.70
2018-05-05T12:40:41.151Z,7.60
2018-05-05T12:43:08.757Z,7.80
2018-05-05T12:45:36.373Z,9.10
2018-05-05T12:48:04.663Z,8.40
2018-05-05T12:50:32.665Z,8.40
2018-05-05T12:53:01.027Z,7.00
2018-05-05T12:55:28.642Z,6.90
2018-05-05T12:57:56.230Z,7.10
2018-05-05T13:00:23.778Z,9.40
2018-05-05T13:02:51.314Z,8.10
2018-05-05T13:05:18.916Z,7.60
2018-05-05T13:07:46.526Z,7.80
2018-05-05T13:10:14.074Z,7.20
2018-05-05T13:12:41.652Z,6.90
2018-05-05T13:15:09.209Z,9.50
2018-05-05T13:17:36.756Z,6.10
2018-05-05T13:20:04.343Z,5.60
2018-05-05T13:22:31.894Z,6.20
2018-05-05T13:24:59.459Z,7.40
2018-05-05T13:27:27.823Z,5.70
2018-05-05T13:29:55.371Z,5.70
2018-05-05T13:32:22.919Z,5.00
2018-05-05T13:34:50.510Z,5.60
2018-05-05T13:37:18.055Z,5.20
2018-05-05T13:39:45.607Z,6.50
2018-05-05T13:42:13.946Z,4.70
2018-05-05T13:44:41.497Z,4.70
2018-05-05T13:47:09.046Z,6.00
2018-05-05T13:49:37.386Z,7.00
2018-05-05T13:52:04.926Z,7.00
2018-05-05T13:54:32.482Z,7.10
2018-05-05T13:57:00.839Z,3.50
2018-05-05T13:59:28.395Z,3.50
2018-05-05T14:01:55.965Z,2.80
2018-05-05T14:04:23.547Z,3.30
2018-05-05T14:06:51.100Z,4.00
2018-05-05T14:09:18.647Z,6.10
2018-05-05T14:11:46.393Z,5.60
2018-05-05T14:14:14.707Z,3.40
2018-05-05T14:16:43.017Z,2.50
2018-05-05T14:19:10.594Z,2.50
2018-05-05T14:21:38.151Z,3.30
2018-05-05T14:24:05.703Z,3.80
2018-05-05T14:26:34.038Z,4.40
2018-05-05T14:29:01.596Z,4.30
2018-05-05T14:31:29.167Z,3.90
2018-05-05T14:33:56.742Z,3.30
2018-05-05T14:36:24.295Z,2.50
2018-05-05T14:38:52.611Z,1.70
2018-05-05T14:41:20.178Z,1.70
2018-05-05T14:43:47.731Z,1.70
2018-05-05T14:46:15.271Z,2.30
2018-05-05T14:48:42.866Z,3.50
2018-05-05T14:51:11.175Z,2.50
2018-05-05T14:53:38.730Z,2.50
2018-05-05T14:56:07.066Z,3.90
2018-05-05T14:58:34.612Z,3.80
2018-05-05T15:01:02.162Z,3.40
2018-05-05T15:03:30.531Z,1.70
2018-05-05T15:05:58.079Z,1.60
2018-05-05T15:08:25.634Z,2.60
2018-05-05T15:10:53.205Z,2.20
2018-05-05T15:13:22.727Z,2.70
2018-05-05T15:15:50.366Z,2.40
2018-05-05T15:18:18.713Z,1.60
2018-05-05T15:20:46.262Z,1.60
2018-05-05T15:23:13.814Z,3.10
2018-05-05T15:25:41.395Z,1.50
2018-05-05T15:28:08.958Z,1.70
2018-05-05T15:30:36.508Z,1.00
2018-05-05T15:33:04.854Z,1.00
2018-05-05T15:35:32.427Z,1.00
2018-05-05T15:37:59.984Z,2.20
2018-05-05T15:40:27.649Z,1.00
2018-05-05T15:42:55.194Z,2.10
2018-05-05T15:45:23.510Z,1.50
2018-05-05T15:47:51.082Z,1.40
2018-05-05T15:50:18.646Z,1.00
2018-05-05T15:52:46.197Z,1.00
2018-05-05T15:55:14.534Z,1.00
2018-05-05T15:57:42.102Z,1.00
2018-05-05T16:00:09.649Z,1.00
2018-05-05T16:02:37.223Z,1.00
2018-05-05T16:05:05.529Z,1.00
2018-05-05T16:07:33.092Z,1.00
2018-05-05T16:10:00.706Z,1.00
2018-05-05T16:12:28.264Z,1.00
2018-05-05T16:14:56.191Z,1.00
2018-05-05T16:17:24.540Z,1.00
2018-05-05T16:19:52.091Z,1.00
2018-05-05T16:22:19.638Z,1.00
2018-05-05T16:24:48.001Z,1.00
2018-05-05T16:27:15.554Z,1.00
2018-05-05T16:29:43.110Z,1.30
2018-05-05T16:32:10.799Z,1.00
2018-05-05T16:34:38.353Z,1.50
2018-05-05T16:37:05.901Z,1.00
2018-05-05T16:39:33.482Z,1.00
2018-05-05T16:42:01.034Z,1.00
2018-05-05T16:44:29.342Z,1.20
2018-05-05T16:46:57.811Z,1.20
2018-05-05T16:49:26.131Z,1.00
2018-05-05T16:51:53.695Z,1.00
2018-05-05T16:54:21.283Z,1.00
2018-05-05T16:56:48.826Z,1.00
2018-05-05T16:59:17.154Z,1.00
2018-05-05T17:01:44.733Z,1.00
2018-05-05T17:04:12.278Z,1.00
2018-05-05T17:06:39.829Z,1.00
2018-05-05T17:09:08.175Z,1.00
2018-05-05T17:11:35.783Z,1.00
2018-05-05T17:14:03.409Z,1.00
2018-05-05T17:16:30.989Z,1.00
2018-05-05T17:18:58.545Z,1.00
2018-05-05T17:21:26.094Z,1.00
2018-05-05T17:23:54.455Z,1.00
2018-05-05T17:26:22.011Z,1.00
2018-05-05T17:28:49.561Z,1.00
2018-05-05T17:31:17.139Z,1.10
2018-05-05T17:33:44.691Z,1.10
2018-05-05T17:36:12.240Z,1.00
2018-05-05T17:38:40.579Z,1.80
2018-05-05T17:41:08.163Z,1.80
2018-05-05T17:43:35.741Z,1.90
2018-05-05T17:46:03.337Z,2.00
2018-05-05T17:48:30.884Z,2.30
2018-05-05T17:50:58.426Z,2.70
2018-05-05T17:53:26.658Z,2.70
2018-05-05T17:55:55.009Z,4.00
2018-05-05T17:58:22.576Z,3.50
2018-05-05T18:00:50.527Z,3.50
2018-05-05T18:03:18.854Z,4.40
2018-05-05T18:05:46.436Z,4.40
2018-05-05T18:08:14.089Z,5.30
2018-05-05T18:10:41.655Z,6.30
2018-05-05T18:13:09.231Z,5.90
2018-05-05T18:15:36.797Z,6.30
2018-05-05T18:18:04.381Z,6.30
2018-05-05T18:20:31.954Z,7.80
2018-05-05T18:22:59.547Z,8.60
2018-05-05T18:25:27.132Z,9.60
2018-05-05T18:27:54.718Z,9.90
2018-05-05T18:30:23.116Z,11.30
2018-05-05T18:32:51.459Z,10.90
2018-05-05T18:35:19.042Z,10.90
2018-05-05T18:37:46.658Z,11.50
2018-05-05T18:40:15.002Z,12.30
2018-05-05T18:42:42.591Z,12.30
2018-05-05T18:45:10.194Z,12.50
2018-05-05T18:47:38.546Z,13.00
2018-05-05T18:50:06.127Z,13.00
2018-05-05T18:52:33.741Z,13.70
2018-05-05T18:55:01.341Z,14.50
2018-05-05T18:57:28.929Z,14.20
2018-05-05T18:59:56.638Z,14.70
2018-05-05T19:02:24.245Z,14.80
2018-05-05T19:04:51.831Z,15.60
2018-05-05T19:07:19.442Z,16.40
2018-05-05T19:09:48.050Z,16.70
2018-05-05T19:12:15.645Z,17.20
2018-05-05T19:14:44.037Z,18.50
2018-05-05T19:17:12.386Z,19.60
2018-05-05T19:19:39.978Z,19.10
2018-05-05T19:22:07.574Z,19.80
2018-05-05T19:24:35.910Z,20.30
2018-05-05T19:27:03.558Z,20.30
2018-05-05T19:29:31.925Z,21.60
2018-05-05T19:32:00.275Z,21.40
2018-05-05T19:34:27.850Z,21.30
2018-05-05T19:36:55.491Z,22.30
2018-05-05T19:39:23.081Z,23.40
2018-05-05T19:41:50.655Z,24.20
2018-05-05T19:44:18.262Z,24.40
2018-05-05T19:46:45.857Z,25.00
2018-05-05T19:49:13.459Z,24.90
2018-05-05T19:51:41.543Z,25.90
2018-05-05T19:54:09.119Z,25.50
2018-05-05T19:56:36.689Z,25.80
2018-05-05T19:59:04.297Z,26.60
2018-05-05T20:01:32.905Z,26.90
2018-05-05T20:04:00.499Z,27.30
2018-05-05T20:06:28.866Z,29.20
2018-05-05T20:08:56.442Z,28.40
2018-05-05T20:11:24.031Z,28.50
2018-05-05T20:13:51.642Z,28.70
2018-05-05T20:16:19.220Z,29.30
2018-05-05T20:18:46.794Z,28.70
2018-05-05T20:21:14.397Z,29.70
2018-05-05T20:23:41.971Z,29.70
2018-05-05T20:26:09.559Z,30.00
2018-05-05T20:28:37.174Z,31.10
2018-05-05T20:31:04.760Z,31.60
2018-05-05T20:33:32.466Z,31.60
2018-05-05T20:36:00.088Z,32.50
2018-05-05T20:38:27.783Z,33.30
2018-05-05T20:40:55.371Z,34.10
2018-05-05T20:43:22.970Z,33.50
2018-05-05T20:45:50.597Z,34.00
2018-05-05T20:48:18.170Z,33.80
2018-05-05T20:50:45.855Z,33.40
2018-05-05T20:53:14.162Z,34.20
2018-05-05T20:55:41.743Z,34.10
2018-05-05T20:58:09.350Z,35.20
2018-05-05T21:00:37.685Z,35.80
2018-05-05T21:03:05.250Z,35.60
2018-05-05T21:05:32.854Z,36.50
2018-05-05T21:08:00.447Z,37.30
2018-05-05T21:10:28.019Z,36.90
2018-05-05T21:12:55.630Z,36.90
2018-05-05T21:15:23.211Z,37.20
2018-05-05T21:17:50.786Z,37.10
2018-05-05T21:20:18.400Z,38.40
2018-05-05T21:22:45.983Z,38.30
2018-05-05T21:25:13.554Z,38.80
2018-05-05T21:27:41.242Z,39.80
2018-05-05T21:30:08.771Z,39.20
2018-05-05T21:32:36.347Z,39.00
2018-05-05T21:35:03.952Z,39.30
2018-05-05T21:37:31.535Z,39.30
2018-05-05T21:39:59.130Z,39.50
2018-05-05T21:42:26.727Z,39.30
2018-05-05T21:44:54.319Z,39.60
2018-05-05T21:47:21.909Z,39.70
2018-05-05T21:49:49.497Z,40.90
2018-05-05T21:52:17.832Z,41.20
2018-05-05T21:54:45.420Z,41.10
2018-05-05T21:57:13.010Z,41.10
2018-05-05T21:59:40.573Z,40.10
2018-05-05T22:02:08.133Z,40.00
2018-05-05T22:04:35.726Z,42.00
2018-05-05T22:07:03.300Z,41.50
2018-05-05T22:09:30.891Z,40.80
2018-05-05T22:11:58.491Z,42.90
2018-05-05T22:14:26.092Z,43.40
2018-05-05T22:16:53.668Z,42.00
2018-05-05T22:19:21.290Z,43.70
2018-05-05T22:21:49.647Z,43.70
2018-05-05T22:24:17.230Z,43.80
2018-05-05T22:26:44.830Z,44.70
2018-05-05T22:29:13.166Z,43.60
2018-05-05T22:31:40.734Z,43.60
2018-05-05T22:34:08.326Z,43.70
2018-05-05T22:36:35.898Z,44.10
2018-05-05T22:39:03.466Z,43.70
2018-05-05T22:41:31.120Z,43.10
2018-05-05T22:43:58.675Z,42.70
2018-05-05T22:46:26.254Z,43.10
2018-05-05T22:48:53.868Z,42.20
2018-05-05T22:51:21.462Z,42.80
2018-05-05T22:53:49.026Z,43.10
2018-05-05T22:56:16.618Z,43.70
2018-05-05T22:58:44.962Z,44.10
2018-05-05T23:01:12.528Z,44.10
2018-05-05T23:03:40.143Z,44.70
2018-05-05T23:06:07.709Z,44.90
2018-05-05T23:08:35.293Z,45.20
2018-05-05T23:11:02.854Z,44.60
2018-05-05T23:13:30.454Z,44.70
2018-05-05T23:15:58.790Z,45.00
2018-05-05T23:18:26.358Z,45.00
2018-05-05T23:20:53.950Z,45.40
2018-05-05T23:23:21.520Z,45.70
2018-05-05T23:25:49.111Z,45.40
2018-05-05T23:28:16.669Z,46.20
2018-05-05T23:30:44.267Z,47.50
2018-05-05T23:33:11.837Z,46.80
2018-05-05T23:35:39.430Z,47.50
2018-05-05T23:38:07.761Z,48.10
2018-05-05T23:40:35.326Z,48.00
2018-05-05T23:43:02.922Z,47.20
2018-05-05T23:45:30.490Z,48.00
2018-05-05T23:47:58.074Z,47.90
2018-05-05T23:50:25.646Z,45.90
2018-05-05T23:52:53.236Z,46.80
2018-05-05T23:55:20.806Z,47.10
2018-05-05T23:57:48.432Z,46.90
